createdAt,value
2019-02-02T00:02:28.365Z,77.30
2019-02-02T00:05:00.378Z,77.13
2019-02-02T00:07:33.376Z,77.06
2019-02-02T00:10:06.426Z,77.02
2019-02-02T00:12:37.812Z,77.12
2019-02-02T00:15:09.902Z,77.20
2019-02-02T00:17:41.979Z,77.15
2019-02-02T00:20:13.877Z,77.14
2019-02-02T00:22:45.402Z,77.16
2019-02-02T00:25:17.034Z,77.21
2019-02-02T00:27:49.974Z,77.31
2019-02-02T00:30:21.825Z,77.15
2019-02-02T00:32:53.175Z,77.04
2019-02-02T00:35:24.841Z,76.88
2019-02-02T00:37:55.955Z,76.64
2019-02-02T00:40:27.323Z,76.46
2019-02-02T00:43:01.524Z,76.23
2019-02-02T00:45:34.134Z,76.22
2019-02-02T00:48:06.316Z,76.05
2019-02-02T00:50:37.487Z,75.87
2019-02-02T00:53:08.692Z,75.77
2019-02-02T00:55:39.871Z,75.34
2019-02-02T00:58:11.067Z,75.04
2019-02-02T01:00:43.903Z,75.12
2019-02-02T01:03:15.410Z,74.96
2019-02-02T01:05:46.712Z,75.12
2019-02-02T01:08:17.932Z,74.78
2019-02-02T01:10:49.394Z,74.55
2019-02-02T01:13:20.612Z,74.42
2019-02-02T01:15:53.558Z,75.22
2019-02-02T01:18:24.761Z,75.89
2019-02-02T01:20:55.995Z,75.98
2019-02-02T01:23:27.484Z,75.76
2019-02-02T01:25:58.548Z,75.58
2019-02-02T01:28:29.732Z,75.36
2019-02-02T01:31:01.116Z,75.09
2019-02-02T01:33:32.166Z,74.90
2019-02-02T01:36:04.739Z,74.92
2019-02-02T01:38:36.231Z,74.91
2019-02-02T01:41:07.675Z,75.00
2019-02-02T01:43:38.934Z,74.92
2019-02-02T01:46:10.061Z,74.88
2019-02-02T01:48:41.188Z,74.94
2019-02-02T01:51:12.218Z,74.79
2019-02-02T01:53:43.241Z,74.73
2019-02-02T01:56:14.559Z,74.55
2019-02-02T01:58:47.279Z,74.42
2019-02-02T02:01:18.918Z,74.32
2019-02-02T02:03:50.622Z,74.29
2019-02-02T02:06:22.422Z,74.29
2019-02-02T02:08:55.134Z,74.31
2019-02-02T02:11:26.369Z,74.36
2019-02-02T02:13:57.601Z,74.46
2019-02-02T02:16:28.799Z,74.49
2019-02-02T02:19:00.497Z,74.14
2019-02-02T02:21:33.411Z,74.02
2019-02-02T02:24:05.380Z,74.19
2019-02-02T02:26:36.574Z,74.10
2019-02-02T02:29:07.764Z,74.34
2019-02-02T02:31:39.049Z,74.53
2019-02-02T02:34:12.489Z,74.77
2019-02-02T02:36:44.853Z,75.34
2019-02-02T02:39:16.665Z,76.14
2019-02-02T02:41:49.943Z,76.14
2019-02-02T02:44:21.680Z,76.03
2019-02-02T02:46:52.852Z,76.06
2019-02-02T02:49:24.146Z,76.13
2019-02-02T02:51:55.493Z,76.09
2019-02-02T02:54:28.146Z,76.09
2019-02-02T02:56:59.412Z,75.96
2019-02-02T02:59:31.986Z,75.96
2019-02-02T03:02:03.670Z,75.88
2019-02-02T03:04:36.640Z,75.87
2019-02-02T03:07:07.738Z,76.00
2019-02-02T03:09:38.795Z,76.25
2019-02-02T03:12:11.247Z,76.34
2019-02-02T03:14:42.501Z,76.33
2019-02-02T03:17:13.873Z,76.22
2019-02-02T03:19:45.150Z,76.12
2019-02-02T03:22:16.188Z,75.79
2019-02-02T03:24:47.654Z,75.69
2019-02-02T03:27:19.013Z,75.61
2019-02-02T03:29:50.943Z,75.80
2019-02-02T03:32:22.227Z,75.85
2019-02-02T03:34:53.629Z,75.75
2019-02-02T03:37:24.769Z,75.65
2019-02-02T03:39:56.158Z,75.50
2019-02-02T03:42:28.625Z,75.54
2019-02-02T03:45:00.000Z,75.51
2019-02-02T03:47:33.532Z,75.62
2019-02-02T03:50:07.013Z,75.45
2019-02-02T03:52:40.246Z,75.49
2019-02-02T03:55:12.725Z,75.48
2019-02-02T03:57:44.009Z,75.44
2019-02-02T04:00:21.166Z,75.45
2019-02-02T04:02:52.574Z,75.51
2019-02-02T04:05:26.183Z,75.41
2019-02-02T04:07:57.934Z,75.72
2019-02-02T04:10:29.518Z,75.75
2019-02-02T04:13:01.927Z,75.97
2019-02-02T04:15:33.781Z,76.11
2019-02-02T04:18:06.039Z,76.22
2019-02-02T04:20:37.450Z,76.41
2019-02-02T04:23:08.764Z,76.57
2019-02-02T04:25:40.259Z,76.72
2019-02-02T04:28:11.572Z,76.70
2019-02-02T04:30:42.969Z,76.77
2019-02-02T04:33:14.065Z,77.01
2019-02-02T04:35:45.202Z,77.50
2019-02-02T04:38:16.487Z,77.58
2019-02-02T04:40:47.782Z,77.65
2019-02-02T04:43:20.390Z,77.79
2019-02-02T04:45:52.059Z,77.85
2019-02-02T04:48:23.498Z,78.23
2019-02-02T04:50:54.715Z,78.29
2019-02-02T04:53:27.285Z,78.24
2019-02-02T04:55:58.363Z,78.33
2019-02-02T04:58:29.457Z,78.31
2019-02-02T05:01:02.213Z,78.44
2019-02-02T05:03:33.339Z,78.33
2019-02-02T05:06:04.687Z,78.21
2019-02-02T05:08:35.951Z,78.21
2019-02-02T05:11:07.140Z,77.91
2019-02-02T05:13:38.559Z,77.66
2019-02-02T05:16:10.769Z,77.55
2019-02-02T05:18:41.835Z,77.45
2019-02-02T05:21:13.056Z,77.63
2019-02-02T05:23:44.677Z,77.76
2019-02-02T05:26:16.246Z,77.89
2019-02-02T05:28:47.800Z,78.57
2019-02-02T05:31:19.260Z,79.02
2019-02-02T05:33:53.631Z,79.16
2019-02-02T05:36:24.809Z,79.07
2019-02-02T05:38:56.070Z,79.08
2019-02-02T05:41:27.236Z,79.11
2019-02-02T05:43:58.460Z,79.03
2019-02-02T05:46:29.734Z,78.89
2019-02-02T05:49:01.790Z,78.95
2019-02-02T05:51:33.229Z,78.97
2019-02-02T05:54:04.976Z,79.10
2019-02-02T05:56:36.427Z,78.97
2019-02-02T05:59:07.611Z,79.13
2019-02-02T06:01:40.763Z,79.20
2019-02-02T06:04:11.854Z,79.23
2019-02-02T06:06:43.031Z,79.30
2019-02-02T06:09:14.206Z,79.17
2019-02-02T06:11:47.204Z,79.10
2019-02-02T06:14:19.466Z,78.85
2019-02-02T06:16:50.845Z,78.49
2019-02-02T06:19:22.157Z,78.22
2019-02-02T06:21:58.918Z,78.06
2019-02-02T06:24:30.198Z,77.99
2019-02-02T06:27:03.249Z,77.83
2019-02-02T06:29:34.452Z,77.74
2019-02-02T06:32:11.982Z,77.74
2019-02-02T06:34:40.249Z,77.80
2019-02-02T06:37:11.345Z,77.56
2019-02-02T06:39:42.497Z,77.35
2019-02-02T06:42:14.005Z,77.11
2019-02-02T06:44:45.147Z,76.76
2019-02-02T06:47:16.612Z,76.42
2019-02-02T06:49:47.864Z,76.22
2019-02-02T06:52:19.861Z,76.03
2019-02-02T06:54:50.862Z,75.80
2019-02-02T06:57:22.380Z,75.34
2019-02-02T06:59:54.409Z,75.21
2019-02-02T07:02:26.290Z,75.12
2019-02-02T07:04:57.316Z,75.02
2019-02-02T07:07:28.495Z,74.80
2019-02-02T07:09:59.518Z,74.36
2019-02-02T07:12:30.581Z,73.91
2019-02-02T07:15:01.923Z,73.75
2019-02-02T07:17:34.092Z,73.53
2019-02-02T07:20:06.745Z,73.35
2019-02-02T07:22:37.974Z,73.29
2019-02-02T07:25:10.584Z,73.33
2019-02-02T07:27:42.366Z,73.25
2019-02-02T07:30:28.327Z,73.13
2019-02-02T07:32:51.218Z,73.13
2019-02-02T07:35:22.650Z,73.18
2019-02-02T07:37:53.683Z,72.92
2019-02-02T07:40:24.885Z,72.40
2019-02-02T07:42:56.082Z,72.40
2019-02-02T07:45:29.414Z,72.27
2019-02-02T07:48:00.522Z,72.01
2019-02-02T07:50:31.580Z,71.91
2019-02-02T07:53:02.775Z,71.81
2019-02-02T07:55:33.793Z,71.89
2019-02-02T07:58:05.848Z,71.99
2019-02-02T08:00:41.360Z,72.08
2019-02-02T08:03:14.828Z,72.21
2019-02-02T08:05:45.882Z,72.34
2019-02-02T08:08:17.231Z,72.23
2019-02-02T08:10:48.285Z,72.28
2019-02-02T08:13:19.643Z,72.45
2019-02-02T08:15:51.010Z,72.29
2019-02-02T08:18:22.296Z,72.11
2019-02-02T08:20:53.256Z,71.92
2019-02-02T08:23:24.280Z,71.70
2019-02-02T08:25:55.543Z,71.62
2019-02-02T08:28:26.775Z,71.39
2019-02-02T08:30:57.745Z,71.30
2019-02-02T08:33:28.871Z,71.44
2019-02-02T08:36:00.050Z,71.30
2019-02-02T08:38:31.347Z,71.20
2019-02-02T08:41:02.416Z,71.14
2019-02-02T08:43:33.692Z,70.97
2019-02-02T08:46:04.719Z,70.99
2019-02-02T08:48:35.924Z,70.81
2019-02-02T08:51:09.374Z,70.77
2019-02-02T08:53:59.973Z,70.67
2019-02-02T08:56:49.559Z,70.61
2019-02-02T08:59:40.146Z,70.28
2019-02-02T09:02:30.657Z,70.37
2019-02-02T09:05:20.928Z,70.39
2019-02-02T09:08:10.477Z,70.45
2019-02-02T09:11:00.077Z,70.09
2019-02-02T09:13:32.059Z,69.79
2019-02-02T09:16:03.604Z,69.42
2019-02-02T09:18:35.222Z,69.37
2019-02-02T09:21:07.355Z,69.18
2019-02-02T09:23:39.375Z,68.88
2019-02-02T09:32:53.894Z,68.16
2019-02-02T09:35:25.377Z,67.65
2019-02-02T09:37:56.605Z,67.59
2019-02-02T09:40:28.120Z,67.54
2019-02-02T09:42:59.488Z,67.70
2019-02-02T09:45:30.832Z,67.54
2019-02-02T09:48:03.052Z,67.56
2019-02-02T09:50:34.195Z,67.34
2019-02-02T09:53:06.212Z,67.14
2019-02-02T09:55:37.630Z,67.10
2019-02-02T09:58:11.479Z,66.91
2019-02-02T10:00:46.195Z,66.69
2019-02-02T10:03:17.476Z,66.80
2019-02-02T10:05:48.701Z,66.84
2019-02-02T10:08:19.930Z,67.00
2019-02-02T10:10:50.996Z,67.16
2019-02-02T10:13:22.161Z,67.06
2019-02-02T10:15:53.503Z,67.26
2019-02-02T10:18:24.570Z,67.23
2019-02-02T10:21:03.641Z,67.29
2019-02-02T10:23:28.456Z,67.00
2019-02-02T10:25:59.809Z,67.16
2019-02-02T10:28:31.812Z,67.19
2019-02-02T10:31:02.963Z,67.03
2019-02-02T10:33:34.033Z,67.02
2019-02-02T10:36:05.587Z,66.93
2019-02-02T10:38:36.803Z,66.62
2019-02-02T10:41:07.860Z,66.43
2019-02-02T10:43:38.926Z,66.16
2019-02-02T10:46:10.943Z,65.99
2019-02-02T10:48:42.239Z,66.11
2019-02-02T10:51:13.651Z,66.09
2019-02-02T10:53:45.273Z,65.80
2019-02-02T10:56:16.334Z,65.62
2019-02-02T10:58:47.980Z,65.47
2019-02-02T11:01:19.178Z,65.01
2019-02-02T11:03:50.469Z,64.93
2019-02-02T11:06:21.814Z,65.00
2019-02-02T11:08:53.175Z,64.74
2019-02-02T11:11:24.396Z,64.94
2019-02-02T11:13:55.385Z,64.61
2019-02-02T11:16:26.531Z,64.54
2019-02-02T11:18:57.656Z,64.13
2019-02-02T11:21:29.170Z,64.62
2019-02-02T11:24:00.264Z,64.58
2019-02-02T11:26:31.657Z,64.23
2019-02-02T11:29:03.019Z,64.02
2019-02-02T11:31:34.103Z,64.06
2019-02-02T11:34:05.795Z,63.90
2019-02-02T11:36:36.912Z,63.37
2019-02-02T11:39:09.480Z,63.06
2019-02-02T11:41:40.927Z,62.81
2019-02-02T11:44:12.207Z,62.47
2019-02-02T11:46:43.560Z,62.21
2019-02-02T11:49:14.573Z,61.62
2019-02-02T11:51:45.846Z,61.49
2019-02-02T11:54:16.853Z,61.82
2019-02-02T11:56:47.971Z,61.22
2019-02-02T11:59:19.388Z,60.92
2019-02-02T12:01:50.530Z,60.58
2019-02-02T12:04:21.738Z,60.71
2019-02-02T12:06:52.843Z,60.37
2019-02-02T12:09:24.139Z,59.19
2019-02-02T12:11:56.237Z,59.35
2019-02-02T12:14:27.395Z,59.39
2019-02-02T12:16:58.758Z,58.59
2019-02-02T12:19:30.227Z,57.71
2019-02-02T12:22:01.296Z,57.12
2019-02-02T12:24:32.575Z,56.89
2019-02-02T12:27:03.578Z,57.04
2019-02-02T12:29:35.085Z,56.51
2019-02-02T12:32:06.601Z,56.77
2019-02-02T12:34:38.253Z,56.78
2019-02-02T12:37:09.313Z,56.30
2019-02-02T12:39:41.034Z,55.21
2019-02-02T12:42:12.100Z,54.72
2019-02-02T12:44:43.561Z,55.25
2019-02-02T12:47:14.645Z,55.57
2019-02-02T12:49:45.783Z,58.31
2019-02-02T12:52:17.050Z,56.96
2019-02-02T12:54:48.275Z,57.51
2019-02-02T12:57:19.393Z,58.35
2019-02-02T12:59:50.602Z,58.70
2019-02-02T13:02:25.435Z,59.75
2019-02-02T13:04:55.765Z,60.18
2019-02-02T13:07:26.818Z,61.00
2019-02-02T13:09:57.911Z,61.00
2019-02-02T13:12:29.151Z,61.26
2019-02-02T13:15:00.495Z,61.03
2019-02-02T13:17:32.811Z,61.02
2019-02-02T13:20:05.168Z,61.20
2019-02-02T13:22:36.473Z,61.60
2019-02-02T13:25:10.122Z,61.63
2019-02-02T13:27:41.165Z,62.12
2019-02-02T13:30:15.920Z,62.14
2019-02-02T13:32:49.799Z,62.35
2019-02-02T13:35:19.979Z,62.51
2019-02-02T13:37:51.142Z,62.54
2019-02-02T13:40:23.786Z,62.75
2019-02-02T14:50:37.004Z,66.48
2019-02-02T14:53:10.277Z,66.40
2019-02-02T14:55:41.671Z,66.66
2019-02-02T14:58:13.390Z,66.84
2019-02-02T15:00:44.410Z,67.10
2019-02-02T15:03:25.561Z,67.19
2019-02-02T15:05:48.939Z,67.48
2019-02-02T15:08:19.955Z,67.49
2019-02-02T15:10:50.999Z,67.50
2019-02-02T15:13:22.019Z,67.47
2019-02-02T15:15:53.063Z,67.06
2019-02-02T15:18:24.275Z,66.78
2019-02-02T15:20:55.382Z,66.64
2019-02-02T15:23:26.385Z,66.53
2019-02-02T15:25:57.625Z,66.21
2019-02-02T15:28:28.748Z,66.22
2019-02-02T15:30:59.817Z,65.99
2019-02-02T15:33:49.620Z,65.92
2019-02-02T15:36:20.763Z,65.82
2019-02-02T15:38:52.018Z,66.16
2019-02-02T15:41:23.518Z,66.41
2019-02-02T15:43:54.530Z,66.33
2019-02-02T15:46:25.562Z,66.34
2019-02-02T15:48:56.645Z,66.44
2019-02-02T15:51:39.779Z,66.48
2019-02-02T15:54:00.995Z,66.81
2019-02-02T15:56:32.217Z,67.07
2019-02-02T15:59:03.495Z,67.20
2019-02-02T16:01:34.604Z,67.71
2019-02-02T16:06:09.452Z,68.13
2019-02-02T16:08:40.566Z,69.30
2019-02-02T16:11:13.027Z,69.56
2019-02-02T16:13:44.962Z,69.96
2019-02-02T16:16:16.593Z,69.59
2019-02-02T16:18:48.827Z,68.91
2019-02-02T16:21:20.229Z,68.57
2019-02-02T16:23:51.766Z,68.17
2019-02-02T16:26:23.573Z,68.37
2019-02-02T16:28:54.897Z,68.02
2019-02-02T16:31:26.497Z,68.48
2019-02-02T16:34:02.112Z,69.30
2019-02-02T16:36:31.665Z,69.66
2019-02-02T16:39:06.134Z,69.66
2019-02-02T16:41:39.827Z,69.97
2019-02-02T16:44:12.404Z,69.82
2019-02-02T16:46:44.874Z,69.82
2019-02-02T16:49:16.055Z,69.69
2019-02-02T16:51:47.269Z,69.77
2019-02-02T16:54:18.402Z,69.74
2019-02-02T16:56:51.016Z,69.65
2019-02-02T16:59:22.703Z,69.22
2019-02-02T17:01:53.922Z,68.99
2019-02-02T17:04:24.952Z,68.90
2019-02-02T17:06:56.181Z,68.96
2019-02-02T17:09:27.521Z,68.67
2019-02-02T17:11:58.695Z,68.63
2019-02-02T17:14:29.893Z,68.65
2019-02-02T17:17:00.896Z,68.54
2019-02-02T17:19:31.984Z,68.54
2019-02-02T17:22:03.455Z,68.39
2019-02-02T17:24:35.387Z,68.53
2019-02-02T17:27:06.801Z,68.53
2019-02-02T17:29:37.991Z,69.12
2019-02-02T17:32:09.065Z,69.64
2019-02-02T17:34:40.809Z,69.86
2019-02-02T17:37:11.970Z,69.95
2019-02-02T17:39:43.783Z,70.19
2019-02-02T17:42:14.908Z,70.14
2019-02-02T17:44:50.412Z,70.03
2019-02-02T17:47:21.740Z,69.98
2019-02-02T17:49:52.865Z,69.68
2019-02-02T17:52:24.033Z,69.45
2019-02-02T17:54:55.118Z,69.26
2019-02-02T17:57:26.101Z,68.89
2019-02-02T17:59:57.287Z,68.63
2019-02-02T18:02:28.348Z,68.28
2019-02-02T18:04:59.423Z,68.14
2019-02-02T18:07:30.550Z,67.99
2019-02-02T18:10:01.668Z,67.67
2019-02-02T18:12:32.694Z,67.60
2019-02-02T18:15:04.754Z,67.46
2019-02-02T18:17:35.998Z,67.49
2019-02-02T18:20:09.068Z,67.13
2019-02-02T18:22:40.225Z,66.88
2019-02-02T18:25:12.617Z,66.61
2019-02-02T18:27:44.360Z,66.16
2019-02-02T18:30:18.370Z,65.68
2019-02-02T18:32:49.719Z,65.37
2019-02-02T18:35:21.268Z,65.26
2019-02-02T18:37:52.280Z,64.91
2019-02-02T18:40:23.552Z,64.77
2019-02-02T18:42:55.622Z,64.75
2019-02-02T18:45:27.175Z,64.64
2019-02-02T18:47:58.351Z,64.57
2019-02-02T18:50:29.575Z,64.53
2019-02-02T18:53:00.721Z,64.46
2019-02-02T18:55:35.129Z,64.32
2019-02-02T18:58:06.624Z,64.40
2019-02-02T19:00:38.772Z,64.48
2019-02-02T19:03:10.060Z,64.43
2019-02-02T19:05:41.321Z,64.39
2019-02-02T19:08:12.281Z,64.34
2019-02-02T19:10:44.047Z,64.34
2019-02-02T19:13:15.576Z,64.50
2019-02-02T19:15:46.919Z,64.40
2019-02-02T19:18:18.090Z,64.50
2019-02-02T19:20:49.245Z,64.59
2019-02-02T19:23:25.243Z,64.75
2019-02-02T19:25:53.333Z,65.13
2019-02-02T19:28:26.492Z,65.23
2019-02-02T19:30:57.330Z,65.17
2019-02-02T19:33:28.547Z,65.44
2019-02-02T19:35:59.625Z,65.65
2019-02-02T19:38:30.666Z,65.64
2019-02-02T19:41:01.916Z,65.79
2019-02-02T19:43:32.974Z,65.81
2019-02-02T19:46:04.253Z,65.70
2019-02-02T19:48:35.394Z,66.02
2019-02-02T19:51:06.443Z,66.08
2019-02-02T19:53:37.637Z,66.02
2019-02-02T19:56:08.587Z,66.01
2019-02-02T19:58:39.759Z,66.18
2019-02-02T20:01:10.808Z,66.42
2019-02-02T20:03:41.845Z,66.22
2019-02-02T20:06:13.042Z,65.97
2019-02-02T20:08:44.440Z,65.82
2019-02-02T20:11:15.558Z,65.61
2019-02-02T20:13:53.397Z,65.54
2019-02-02T20:16:24.529Z,65.41
2019-02-02T20:18:55.632Z,65.38
2019-02-02T20:21:26.719Z,65.43
2019-02-02T20:23:58.138Z,65.40
2019-02-02T20:26:29.285Z,65.50
2019-02-02T20:29:00.359Z,65.50
2019-02-02T20:31:31.575Z,65.57
2019-02-02T20:34:02.713Z,65.80
2019-02-02T20:36:33.789Z,66.44
2019-02-02T20:39:08.722Z,66.65
2019-02-02T20:41:39.960Z,66.73
2019-02-02T20:44:11.102Z,66.89
2019-02-02T20:46:42.555Z,67.06
2019-02-02T20:49:13.670Z,67.28
2019-02-02T20:51:44.838Z,67.18
2019-02-02T20:54:19.041Z,67.26
2019-02-02T20:56:49.051Z,67.87
2019-02-02T20:59:21.849Z,67.87
2019-02-02T21:01:53.031Z,68.09
2019-02-02T21:04:28.830Z,68.31
2019-02-02T21:07:00.398Z,68.49
2019-02-02T21:09:31.662Z,68.68
2019-02-02T21:12:02.952Z,69.07
2019-02-02T21:14:34.121Z,69.07
2019-02-02T21:17:05.745Z,69.28
2019-02-02T21:19:36.952Z,69.44
2019-02-02T21:22:07.936Z,69.76
2019-02-02T21:24:38.976Z,69.90
2019-02-02T21:27:10.009Z,69.98
2019-02-02T21:29:41.523Z,70.18
2019-02-02T21:32:12.554Z,70.35
2019-02-02T21:34:43.553Z,70.44
2019-02-02T21:37:14.715Z,70.53
2019-02-02T21:39:45.877Z,70.40
2019-02-02T21:42:17.150Z,70.09
2019-02-02T21:44:48.580Z,69.73
2019-02-02T21:47:19.657Z,70.04
2019-02-02T21:49:50.671Z,69.85
2019-02-02T21:52:21.741Z,70.19
2019-02-02T21:54:53.286Z,70.19
2019-02-02T21:57:24.293Z,70.46
2019-02-02T21:59:56.551Z,71.19
2019-02-02T22:02:27.559Z,71.30
2019-02-02T22:04:59.233Z,70.10
2019-02-02T22:07:30.309Z,69.67
2019-02-02T22:10:01.509Z,70.24
2019-02-02T22:12:32.894Z,71.68
2019-02-02T22:15:05.137Z,72.61
2019-02-02T22:17:36.200Z,72.77
2019-02-02T22:20:08.458Z,73.07
2019-02-02T22:22:39.658Z,74.00
2019-02-02T22:25:13.954Z,74.13
2019-02-02T22:27:46.233Z,74.41
2019-02-02T22:30:19.779Z,75.04
2019-02-02T22:32:50.860Z,74.90
2019-02-02T22:35:23.528Z,75.19
2019-02-02T22:37:56.287Z,75.19
2019-02-02T22:40:28.995Z,75.39
2019-02-02T22:43:02.214Z,75.70
2019-02-02T22:45:33.568Z,76.70
2019-02-02T22:48:06.590Z,78.00
2019-02-02T22:50:38.099Z,78.34
2019-02-02T22:53:09.551Z,78.42
2019-02-02T22:55:42.089Z,78.32
2019-02-02T22:58:14.664Z,78.10
2019-02-02T23:01:13.862Z,77.97
2019-02-02T23:04:04.926Z,77.54
2019-02-02T23:06:59.726Z,77.13
2019-02-02T23:09:58.567Z,77.10
2019-02-02T23:12:57.843Z,76.93
2019-02-02T23:15:55.799Z,76.63
2019-02-02T23:18:29.073Z,76.15
2019-02-02T23:21:00.608Z,76.11
2019-02-02T23:23:32.268Z,76.49
2019-02-02T23:26:03.578Z,76.75
2019-02-02T23:28:34.885Z,77.35
2019-02-02T23:31:06.369Z,77.74
2019-02-02T23:33:37.777Z,78.36
2019-02-02T23:36:09.074Z,78.58
2019-02-02T23:38:40.608Z,78.50
2019-02-02T23:41:12.024Z,78.51
2019-02-02T23:43:44.063Z,78.66
2019-02-02T23:46:16.159Z,78.95
2019-02-02T23:48:47.537Z,79.21
2019-02-02T23:51:18.892Z,78.86
2019-02-02T23:53:53.115Z,79.22
2019-02-02T23:56:24.753Z,79.65
2019-02-02T23:58:56.120Z,79.80
